sensor_id;sensor_type;location;lat;lon;timestamp;P1;durP1;ratioP1;P2;durP2;ratioP2
44304;SDS011;30019;50.576;8.568;2023-03-03T00:01:04;34.40;;;15.65;;
44304;SDS011;30019;50.576;8.568;2023-03-03T00:03:30;29.52;;;15.40;;
44304;SDS011;30019;50.576;8.568;2023-03-03T00:05:56;32.95;;;15.68;;
44304;SDS011;30019;50.576;8.568;2023-03-03T00:08:22;30.52;;;15.68;;
44304;SDS011;30019;50.576;8.568;2023-03-03T00:10:49;33.67;;;17.42;;
44304;SDS011;30019;50.576;8.568;2023-03-03T00:13:19;39.55;;;17.58;;
44304;SDS011;30019;50.576;8.568;2023-03-03T00:15:47;41.28;;;17.60;;
44304;SDS011;30019;50.576;8.568;2023-03-03T00:20:59;35.75;;;17.58;;
44304;SDS011;30019;50.576;8.568;2023-03-03T00:26:15;37.58;;;18.95;;
44304;SDS011;30019;50.576;8.568;2023-03-03T00:28:46;41.08;;;20.62;;
44304;SDS011;30019;50.576;8.568;2023-03-03T00:31:15;42.55;;;19.98;;
44304;SDS011;30019;50.576;8.568;2023-03-03T00:33:51;40.35;;;20.17;;
44304;SDS011;30019;50.576;8.568;2023-03-03T00:36:23;41.13;;;19.20;;
44304;SDS011;30019;50.576;8.568;2023-03-03T00:41:45;37.50;;;19.42;;
44304;SDS011;30019;50.576;8.568;2023-03-03T00:46:52;38.17;;;19.17;;
44304;SDS011;30019;50.576;8.568;2023-03-03T00:49:27;41.47;;;21.27;;
44304;SDS011;30019;50.576;8.568;2023-03-03T00:51:53;42.10;;;19.95;;
44304;SDS011;30019;50.576;8.568;2023-03-03T00:54:18;46.40;;;22.40;;
44304;SDS011;30019;50.576;8.568;2023-03-03T00:56:44;40.08;;;20.15;;
44304;SDS011;30019;50.576;8.568;2023-03-03T00:59:10;39.15;;;19.92;;
44304;SDS011;30019;50.576;8.568;2023-03-03T01:01:35;42.33;;;20.75;;
44304;SDS011;30019;50.576;8.568;2023-03-03T01:04:01;46.70;;;20.37;;
44304;SDS011;30019;50.576;8.568;2023-03-03T01:06:26;41.97;;;21.80;;
44304;SDS011;30019;50.576;8.568;2023-03-03T01:08:52;47.95;;;23.60;;
44304;SDS011;30019;50.576;8.568;2023-03-03T01:11:25;51.05;;;23.55;;
44304;SDS011;30019;50.576;8.568;2023-03-03T01:13:52;46.33;;;22.87;;
44304;SDS011;30019;50.576;8.568;2023-03-03T01:16:18;48.83;;;23.27;;
44304;SDS011;30019;50.576;8.568;2023-03-03T01:18:44;46.17;;;22.52;;
44304;SDS011;30019;50.576;8.568;2023-03-03T01:21:10;47.83;;;23.73;;
44304;SDS011;30019;50.576;8.568;2023-03-03T01:23:36;47.83;;;23.30;;
44304;SDS011;30019;50.576;8.568;2023-03-03T01:26:02;47.28;;;23.73;;
44304;SDS011;30019;50.576;8.568;2023-03-03T01:28:28;47.22;;;23.70;;
44304;SDS011;30019;50.576;8.568;2023-03-03T01:30:54;42.65;;;21.62;;
44304;SDS011;30019;50.576;8.568;2023-03-03T01:33:28;45.20;;;22.87;;
44304;SDS011;30019;50.576;8.568;2023-03-03T01:35:55;46.55;;;23.05;;
44304;SDS011;30019;50.576;8.568;2023-03-03T01:38:21;47.72;;;22.42;;
44304;SDS011;30019;50.576;8.568;2023-03-03T01:40:54;49.00;;;23.38;;
44304;SDS011;30019;50.576;8.568;2023-03-03T01:43:22;55.95;;;23.75;;
44304;SDS011;30019;50.576;8.568;2023-03-03T01:48:17;51.53;;;24.15;;
44304;SDS011;30019;50.576;8.568;2023-03-03T01:53:18;50.05;;;21.58;;
44304;SDS011;30019;50.576;8.568;2023-03-03T01:55:52;43.50;;;22.87;;
44304;SDS011;30019;50.576;8.568;2023-03-03T01:58:20;51.58;;;25.98;;
44304;SDS011;30019;50.576;8.568;2023-03-03T02:00:51;56.97;;;25.52;;
44304;SDS011;30019;50.576;8.568;2023-03-03T02:03:21;56.40;;;25.58;;
44304;SDS011;30019;50.576;8.568;2023-03-03T02:05:48;59.33;;;25.45;;
44304;SDS011;30019;50.576;8.568;2023-03-03T02:08:18;50.47;;;25.35;;
44304;SDS011;30019;50.576;8.568;2023-03-03T02:10:47;52.55;;;24.90;;
44304;SDS011;30019;50.576;8.568;2023-03-03T02:13:14;54.95;;;24.83;;
44304;SDS011;30019;50.576;8.568;2023-03-03T02:15:39;55.92;;;24.95;;
44304;SDS011;30019;50.576;8.568;2023-03-03T02:18:12;51.22;;;25.88;;
44304;SDS011;30019;50.576;8.568;2023-03-03T02:23:12;59.47;;;27.08;;
44304;SDS011;30019;50.576;8.568;2023-03-03T02:25:51;53.10;;;24.27;;
44304;SDS011;30019;50.576;8.568;2023-03-03T02:28:23;55.58;;;25.58;;
44304;SDS011;30019;50.576;8.568;2023-03-03T02:30:55;57.20;;;27.00;;
44304;SDS011;30019;50.576;8.568;2023-03-03T02:33:22;60.40;;;26.42;;
44304;SDS011;30019;50.576;8.568;2023-03-03T02:35:48;54.70;;;26.37;;
44304;SDS011;30019;50.576;8.568;2023-03-03T02:38:28;64.47;;;29.08;;
44304;SDS011;30019;50.576;8.568;2023-03-03T02:41:08;62.80;;;27.87;;
44304;SDS011;30019;50.576;8.568;2023-03-03T02:46:17;53.30;;;24.87;;
44304;SDS011;30019;50.576;8.568;2023-03-03T02:48:43;58.58;;;27.87;;
44304;SDS011;30019;50.576;8.568;2023-03-03T02:51:08;55.95;;;26.20;;
44304;SDS011;30019;50.576;8.568;2023-03-03T02:53:34;59.72;;;25.50;;
44304;SDS011;30019;50.576;8.568;2023-03-03T02:56:01;66.05;;;30.02;;
44304;SDS011;30019;50.576;8.568;2023-03-03T02:58:28;70.78;;;29.70;;
44304;SDS011;30019;50.576;8.568;2023-03-03T03:00:54;63.83;;;28.23;;
44304;SDS011;30019;50.576;8.568;2023-03-03T03:03:20;72.97;;;31.12;;
44304;SDS011;30019;50.576;8.568;2023-03-03T03:05:46;68.12;;;29.80;;
44304;SDS011;30019;50.576;8.568;2023-03-03T03:08:12;65.60;;;28.35;;
44304;SDS011;30019;50.576;8.568;2023-03-03T03:10:37;71.80;;;32.67;;
44304;SDS011;30019;50.576;8.568;2023-03-03T03:13:03;71.50;;;31.67;;
44304;SDS011;30019;50.576;8.568;2023-03-03T03:15:29;68.87;;;31.23;;
44304;SDS011;30019;50.576;8.568;2023-03-03T03:17:54;71.05;;;29.98;;
44304;SDS011;30019;50.576;8.568;2023-03-03T03:20:20;67.03;;;28.75;;
44304;SDS011;30019;50.576;8.568;2023-03-03T03:22:46;67.18;;;31.77;;
44304;SDS011;30019;50.576;8.568;2023-03-03T03:25:11;70.00;;;31.70;;
44304;SDS011;30019;50.576;8.568;2023-03-03T03:27:37;67.82;;;30.55;;
44304;SDS011;30019;50.576;8.568;2023-03-03T03:30:03;68.72;;;30.30;;
44304;SDS011;30019;50.576;8.568;2023-03-03T03:32:28;74.40;;;31.60;;
44304;SDS011;30019;50.576;8.568;2023-03-03T03:34:54;67.30;;;31.85;;
44304;SDS011;30019;50.576;8.568;2023-03-03T03:37:20;76.15;;;31.45;;
44304;SDS011;30019;50.576;8.568;2023-03-03T03:39:45;68.20;;;31.50;;
44304;SDS011;30019;50.576;8.568;2023-03-03T03:42:11;74.10;;;32.33;;
44304;SDS011;30019;50.576;8.568;2023-03-03T03:44:36;73.43;;;32.10;;
44304;SDS011;30019;50.576;8.568;2023-03-03T03:47:02;75.78;;;32.72;;
44304;SDS011;30019;50.576;8.568;2023-03-03T03:49:28;75.05;;;34.03;;
44304;SDS011;30019;50.576;8.568;2023-03-03T03:51:53;74.10;;;33.83;;
44304;SDS011;30019;50.576;8.568;2023-03-03T03:54:19;75.20;;;33.65;;
44304;SDS011;30019;50.576;8.568;2023-03-03T03:56:44;69.05;;;32.45;;
44304;SDS011;30019;50.576;8.568;2023-03-03T03:59:10;72.90;;;31.60;;
44304;SDS011;30019;50.576;8.568;2023-03-03T04:01:35;74.45;;;31.75;;
44304;SDS011;30019;50.576;8.568;2023-03-03T04:04:01;65.22;;;30.62;;
44304;SDS011;30019;50.576;8.568;2023-03-03T04:06:28;76.87;;;31.10;;
44304;SDS011;30019;50.576;8.568;2023-03-03T04:08:54;74.57;;;30.92;;
44304;SDS011;30019;50.576;8.568;2023-03-03T04:11:19;78.93;;;34.55;;
44304;SDS011;30019;50.576;8.568;2023-03-03T04:13:45;65.40;;;27.25;;
44304;SDS011;30019;50.576;8.568;2023-03-03T04:16:10;74.22;;;31.48;;
44304;SDS011;30019;50.576;8.568;2023-03-03T04:18:36;69.55;;;31.65;;
44304;SDS011;30019;50.576;8.568;2023-03-03T04:21:02;69.25;;;31.00;;
44304;SDS011;30019;50.576;8.568;2023-03-03T04:23:28;68.28;;;30.98;;
44304;SDS011;30019;50.576;8.568;2023-03-03T04:25:53;73.18;;;30.58;;
44304;SDS011;30019;50.576;8.568;2023-03-03T04:28:19;64.50;;;29.50;;
44304;SDS011;30019;50.576;8.568;2023-03-03T04:30:45;70.18;;;31.45;;
44304;SDS011;30019;50.576;8.568;2023-03-03T04:33:11;63.10;;;32.10;;
44304;SDS011;30019;50.576;8.568;2023-03-03T04:35:37;65.95;;;32.15;;
44304;SDS011;30019;50.576;8.568;2023-03-03T04:38:02;67.00;;;30.48;;
44304;SDS011;30019;50.576;8.568;2023-03-03T04:40:29;72.43;;;31.17;;
44304;SDS011;30019;50.576;8.568;2023-03-03T04:42:55;69.47;;;30.62;;
44304;SDS011;30019;50.576;8.568;2023-03-03T04:45:20;69.50;;;31.23;;
44304;SDS011;30019;50.576;8.568;2023-03-03T04:47:46;67.65;;;30.70;;
44304;SDS011;30019;50.576;8.568;2023-03-03T04:50:11;67.20;;;31.17;;
44304;SDS011;30019;50.576;8.568;2023-03-03T04:52:37;65.93;;;30.70;;
44304;SDS011;30019;50.576;8.568;2023-03-03T04:55:03;71.60;;;31.50;;
44304;SDS011;30019;50.576;8.568;2023-03-03T04:57:29;66.32;;;30.20;;
44304;SDS011;30019;50.576;8.568;2023-03-03T04:59:55;62.53;;;29.42;;
44304;SDS011;30019;50.576;8.568;2023-03-03T05:02:21;64.72;;;30.20;;
44304;SDS011;30019;50.576;8.568;2023-03-03T05:04:47;66.50;;;30.15;;
44304;SDS011;30019;50.576;8.568;2023-03-03T05:07:12;67.95;;;29.75;;
44304;SDS011;30019;50.576;8.568;2023-03-03T05:09:38;66.72;;;30.80;;
44304;SDS011;30019;50.576;8.568;2023-03-03T05:12:04;62.33;;;29.87;;
44304;SDS011;30019;50.576;8.568;2023-03-03T05:14:29;67.03;;;31.62;;
44304;SDS011;30019;50.576;8.568;2023-03-03T05:16:55;72.12;;;31.50;;
44304;SDS011;30019;50.576;8.568;2023-03-03T05:19:21;64.80;;;28.52;;
44304;SDS011;30019;50.576;8.568;2023-03-03T05:21:48;67.05;;;29.92;;
44304;SDS011;30019;50.576;8.568;2023-03-03T05:24:13;67.68;;;29.65;;
44304;SDS011;30019;50.576;8.568;2023-03-03T05:26:39;68.15;;;30.08;;
44304;SDS011;30019;50.576;8.568;2023-03-03T05:29:05;67.30;;;30.45;;
44304;SDS011;30019;50.576;8.568;2023-03-03T05:31:32;61.92;;;30.80;;
44304;SDS011;30019;50.576;8.568;2023-03-03T05:33:57;62.35;;;29.77;;
44304;SDS011;30019;50.576;8.568;2023-03-03T05:36:23;50.40;;;20.58;;
44304;SDS011;30019;50.576;8.568;2023-03-03T05:38:49;54.67;;;23.65;;
44304;SDS011;30019;50.576;8.568;2023-03-03T05:41:14;55.42;;;25.20;;
44304;SDS011;30019;50.576;8.568;2023-03-03T05:43:40;56.75;;;26.67;;
44304;SDS011;30019;50.576;8.568;2023-03-03T05:46:06;55.85;;;28.17;;
44304;SDS011;30019;50.576;8.568;2023-03-03T05:48:32;63.58;;;31.48;;
44304;SDS011;30019;50.576;8.568;2023-03-03T05:50:58;62.33;;;29.75;;
44304;SDS011;30019;50.576;8.568;2023-03-03T05:53:24;61.30;;;27.75;;
44304;SDS011;30019;50.576;8.568;2023-03-03T05:55:50;56.80;;;27.80;;
44304;SDS011;30019;50.576;8.568;2023-03-03T05:58:16;60.17;;;27.48;;
44304;SDS011;30019;50.576;8.568;2023-03-03T06:00:42;58.65;;;26.42;;
44304;SDS011;30019;50.576;8.568;2023-03-03T06:03:07;61.45;;;27.60;;
44304;SDS011;30019;50.576;8.568;2023-03-03T06:05:33;59.33;;;28.45;;
44304;SDS011;30019;50.576;8.568;2023-03-03T06:07:59;56.08;;;27.00;;
44304;SDS011;30019;50.576;8.568;2023-03-03T06:10:24;52.72;;;24.67;;
44304;SDS011;30019;50.576;8.568;2023-03-03T06:12:50;56.70;;;27.90;;
44304;SDS011;30019;50.576;8.568;2023-03-03T06:15:16;60.35;;;28.87;;
44304;SDS011;30019;50.576;8.568;2023-03-03T06:17:41;60.67;;;27.00;;
44304;SDS011;30019;50.576;8.568;2023-03-03T06:20:07;55.78;;;26.20;;
44304;SDS011;30019;50.576;8.568;2023-03-03T06:22:34;52.03;;;25.62;;
44304;SDS011;30019;50.576;8.568;2023-03-03T06:24:59;55.28;;;28.77;;
44304;SDS011;30019;50.576;8.568;2023-03-03T06:27:25;54.42;;;24.27;;
44304;SDS011;30019;50.576;8.568;2023-03-03T06:29:51;53.92;;;24.60;;
44304;SDS011;30019;50.576;8.568;2023-03-03T06:32:16;59.25;;;24.77;;
44304;SDS011;30019;50.576;8.568;2023-03-03T06:34:42;57.42;;;26.83;;
44304;SDS011;30019;50.576;8.568;2023-03-03T06:37:08;56.35;;;23.85;;
44304;SDS011;30019;50.576;8.568;2023-03-03T06:39:33;57.53;;;28.38;;
44304;SDS011;30019;50.576;8.568;2023-03-03T06:41:59;56.80;;;26.77;;
44304;SDS011;30019;50.576;8.568;2023-03-03T06:44:24;55.25;;;27.27;;
44304;SDS011;30019;50.576;8.568;2023-03-03T06:46:50;50.38;;;26.15;;
44304;SDS011;30019;50.576;8.568;2023-03-03T06:49:15;50.80;;;21.42;;
44304;SDS011;30019;50.576;8.568;2023-03-03T06:51:41;49.45;;;24.23;;
44304;SDS011;30019;50.576;8.568;2023-03-03T06:54:13;51.58;;;23.77;;
44304;SDS011;30019;50.576;8.568;2023-03-03T06:56:40;51.15;;;23.87;;
44304;SDS011;30019;50.576;8.568;2023-03-03T06:59:11;47.67;;;22.00;;
44304;SDS011;30019;50.576;8.568;2023-03-03T07:01:42;44.40;;;22.15;;
44304;SDS011;30019;50.576;8.568;2023-03-03T07:04:27;44.75;;;22.15;;
44304;SDS011;30019;50.576;8.568;2023-03-03T07:06:57;38.97;;;16.52;;
44304;SDS011;30019;50.576;8.568;2023-03-03T07:09:51;43.85;;;20.37;;
44304;SDS011;30019;50.576;8.568;2023-03-03T07:12:19;37.45;;;18.25;;
44304;SDS011;30019;50.576;8.568;2023-03-03T07:15:12;46.13;;;22.55;;
44304;SDS011;30019;50.576;8.568;2023-03-03T07:17:36;40.55;;;19.50;;
44304;SDS011;30019;50.576;8.568;2023-03-03T07:20:13;40.80;;;21.25;;
44304;SDS011;30019;50.576;8.568;2023-03-03T07:22:49;38.10;;;18.85;;
44304;SDS011;30019;50.576;8.568;2023-03-03T07:27:55;37.55;;;19.08;;
44304;SDS011;30019;50.576;8.568;2023-03-03T07:30:27;36.45;;;19.52;;
44304;SDS011;30019;50.576;8.568;2023-03-03T07:32:54;34.00;;;16.87;;
44304;SDS011;30019;50.576;8.568;2023-03-03T07:35:32;35.83;;;18.90;;
44304;SDS011;30019;50.576;8.568;2023-03-03T07:38:13;31.05;;;14.20;;
44304;SDS011;30019;50.576;8.568;2023-03-03T07:40:55;36.25;;;17.40;;
44304;SDS011;30019;50.576;8.568;2023-03-03T07:46:18;35.30;;;18.10;;
44304;SDS011;30019;50.576;8.568;2023-03-03T07:49:00;33.80;;;17.10;;
44304;SDS011;30019;50.576;8.568;2023-03-03T07:51:40;33.78;;;17.37;;
44304;SDS011;30019;50.576;8.568;2023-03-03T07:59:36;29.35;;;16.15;;
44304;SDS011;30019;50.576;8.568;2023-03-03T08:02:02;30.02;;;15.75;;
44304;SDS011;30019;50.576;8.568;2023-03-03T08:04:41;33.15;;;17.33;;
44304;SDS011;30019;50.576;8.568;2023-03-03T08:07:15;29.70;;;15.80;;
44304;SDS011;30019;50.576;8.568;2023-03-03T08:12:47;27.02;;;14.75;;
44304;SDS011;30019;50.576;8.568;2023-03-03T08:17:42;29.05;;;15.50;;
44304;SDS011;30019;50.576;8.568;2023-03-03T08:20:55;26.87;;;15.75;;
44304;SDS011;30019;50.576;8.568;2023-03-03T08:23:08;31.95;;;14.23;;
44304;SDS011;30019;50.576;8.568;2023-03-03T08:25:34;26.25;;;14.32;;
44304;SDS011;30019;50.576;8.568;2023-03-03T08:27:59;26.50;;;14.73;;
44304;SDS011;30019;50.576;8.568;2023-03-03T08:30:25;26.23;;;13.50;;
44304;SDS011;30019;50.576;8.568;2023-03-03T08:32:50;23.45;;;12.98;;
44304;SDS011;30019;50.576;8.568;2023-03-03T08:35:16;21.70;;;11.82;;
44304;SDS011;30019;50.576;8.568;2023-03-03T08:37:41;23.08;;;12.50;;
44304;SDS011;30019;50.576;8.568;2023-03-03T08:40:07;25.95;;;12.48;;
44304;SDS011;30019;50.576;8.568;2023-03-03T08:42:33;25.30;;;12.18;;
44304;SDS011;30019;50.576;8.568;2023-03-03T08:44:59;23.65;;;13.70;;
44304;SDS011;30019;50.576;8.568;2023-03-03T08:47:24;27.58;;;15.07;;
44304;SDS011;30019;50.576;8.568;2023-03-03T08:49:50;24.90;;;12.00;;
44304;SDS011;30019;50.576;8.568;2023-03-03T08:52:15;23.08;;;12.32;;
44304;SDS011;30019;50.576;8.568;2023-03-03T08:54:41;22.62;;;12.50;;
44304;SDS011;30019;50.576;8.568;2023-03-03T08:57:06;22.15;;;9.85;;
44304;SDS011;30019;50.576;8.568;2023-03-03T08:59:32;23.92;;;13.55;;
44304;SDS011;30019;50.576;8.568;2023-03-03T09:02:02;24.05;;;13.13;;
44304;SDS011;30019;50.576;8.568;2023-03-03T09:04:31;25.27;;;12.37;;
44304;SDS011;30019;50.576;8.568;2023-03-03T09:06:57;24.37;;;12.45;;
44304;SDS011;30019;50.576;8.568;2023-03-03T09:09:22;25.02;;;12.00;;
44304;SDS011;30019;50.576;8.568;2023-03-03T09:11:48;25.50;;;13.32;;
44304;SDS011;30019;50.576;8.568;2023-03-03T09:14:15;24.35;;;12.93;;
44304;SDS011;30019;50.576;8.568;2023-03-03T09:16:51;23.10;;;12.95;;
44304;SDS011;30019;50.576;8.568;2023-03-03T09:19:23;20.92;;;12.60;;
44304;SDS011;30019;50.576;8.568;2023-03-03T09:22:18;21.33;;;12.35;;
44304;SDS011;30019;50.576;8.568;2023-03-03T09:24:49;17.87;;;10.93;;
44304;SDS011;30019;50.576;8.568;2023-03-03T09:29:53;21.90;;;12.25;;
44304;SDS011;30019;50.576;8.568;2023-03-03T09:34:51;20.37;;;11.23;;
44304;SDS011;30019;50.576;8.568;2023-03-03T09:37:20;22.55;;;12.20;;
44304;SDS011;30019;50.576;8.568;2023-03-03T09:39:51;20.77;;;10.95;;
44304;SDS011;30019;50.576;8.568;2023-03-03T09:53:30;19.62;;;10.40;;
44304;SDS011;30019;50.576;8.568;2023-03-03T10:04:10;18.58;;;8.98;;
44304;SDS011;30019;50.576;8.568;2023-03-03T10:07:10;28.90;;;14.10;;
44304;SDS011;30019;50.576;8.568;2023-03-03T10:09:57;35.40;;;16.70;;
44304;SDS011;30019;50.576;8.568;2023-03-03T10:12:30;30.12;;;15.35;;
44304;SDS011;30019;50.576;8.568;2023-03-03T10:23:51;20.73;;;10.75;;
44304;SDS011;30019;50.576;8.568;2023-03-03T10:27:04;14.87;;;9.52;;
44304;SDS011;30019;50.576;8.568;2023-03-03T10:34:53;17.48;;;8.90;;
44304;SDS011;30019;50.576;8.568;2023-03-03T10:37:51;14.85;;;8.80;;
44304;SDS011;30019;50.576;8.568;2023-03-03T10:45:52;13.02;;;8.02;;
44304;SDS011;30019;50.576;8.568;2023-03-03T10:51:17;12.90;;;8.75;;
44304;SDS011;30019;50.576;8.568;2023-03-03T10:53:59;16.62;;;7.65;;
44304;SDS011;30019;50.576;8.568;2023-03-03T10:56:40;12.35;;;7.95;;
44304;SDS011;30019;50.576;8.568;2023-03-03T10:59:47;12.02;;;7.47;;
44304;SDS011;30019;50.576;8.568;2023-03-03T11:02:28;12.18;;;7.65;;
44304;SDS011;30019;50.576;8.568;2023-03-03T11:10:46;11.17;;;7.33;;
44304;SDS011;30019;50.576;8.568;2023-03-03T11:13:50;11.80;;;7.25;;
44304;SDS011;30019;50.576;8.568;2023-03-03T11:27:57;13.07;;;8.85;;
44304;SDS011;30019;50.576;8.568;2023-03-03T11:33:52;12.52;;;8.48;;
44304;SDS011;30019;50.576;8.568;2023-03-03T11:36:18;12.18;;;7.22;;
44304;SDS011;30019;50.576;8.568;2023-03-03T11:38:53;11.88;;;8.10;;
44304;SDS011;30019;50.576;8.568;2023-03-03T11:44:28;9.20;;;7.53;;
44304;SDS011;30019;50.576;8.568;2023-03-03T11:47:01;11.98;;;7.85;;
44304;SDS011;30019;50.576;8.568;2023-03-03T11:50:05;9.82;;;8.18;;
44304;SDS011;30019;50.576;8.568;2023-03-03T11:52:43;6.62;;;5.55;;
44304;SDS011;30019;50.576;8.568;2023-03-03T11:55:38;7.35;;;5.53;;
44304;SDS011;30019;50.576;8.568;2023-03-03T11:58:12;6.53;;;5.80;;
44304;SDS011;30019;50.576;8.568;2023-03-03T12:03:48;6.35;;;5.35;;
44304;SDS011;30019;50.576;8.568;2023-03-03T12:09:08;11.88;;;6.47;;
44304;SDS011;30019;50.576;8.568;2023-03-03T12:14:17;6.93;;;5.37;;
44304;SDS011;30019;50.576;8.568;2023-03-03T12:19:29;7.72;;;5.75;;
44304;SDS011;30019;50.576;8.568;2023-03-03T12:24:56;7.05;;;5.62;;
44304;SDS011;30019;50.576;8.568;2023-03-03T12:27:40;8.32;;;5.68;;
44304;SDS011;30019;50.576;8.568;2023-03-03T12:30:20;8.75;;;5.45;;
44304;SDS011;30019;50.576;8.568;2023-03-03T12:33:21;6.50;;;5.20;;
44304;SDS011;30019;50.576;8.568;2023-03-03T12:39:29;8.32;;;5.80;;
44304;SDS011;30019;50.576;8.568;2023-03-03T12:42:10;6.35;;;5.15;;
44304;SDS011;30019;50.576;8.568;2023-03-03T12:44:42;6.55;;;5.28;;
44304;SDS011;30019;50.576;8.568;2023-03-03T12:50:08;7.85;;;5.68;;
44304;SDS011;30019;50.576;8.568;2023-03-03T12:55:24;5.47;;;4.90;;
44304;SDS011;30019;50.576;8.568;2023-03-03T13:01:38;6.95;;;5.10;;
44304;SDS011;30019;50.576;8.568;2023-03-03T13:04:31;6.22;;;4.93;;
44304;SDS011;30019;50.576;8.568;2023-03-03T13:20:33;8.02;;;5.32;;
44304;SDS011;30019;50.576;8.568;2023-03-03T13:30:53;6.28;;;5.15;;
44304;SDS011;30019;50.576;8.568;2023-03-03T13:33:26;6.37;;;5.12;;
44304;SDS011;30019;50.576;8.568;2023-03-03T13:38:40;7.82;;;4.75;;
44304;SDS011;30019;50.576;8.568;2023-03-03T13:51:59;6.22;;;4.72;;
44304;SDS011;30019;50.576;8.568;2023-03-03T13:57:12;6.43;;;4.78;;
44304;SDS011;30019;50.576;8.568;2023-03-03T14:08:06;6.78;;;4.93;;
44304;SDS011;30019;50.576;8.568;2023-03-03T14:15:54;8.68;;;5.30;;
44304;SDS011;30019;50.576;8.568;2023-03-03T14:18:33;5.90;;;4.55;;
44304;SDS011;30019;50.576;8.568;2023-03-03T14:21:08;8.63;;;5.15;;
44304;SDS011;30019;50.576;8.568;2023-03-03T14:23:49;6.72;;;5.05;;
44304;SDS011;30019;50.576;8.568;2023-03-03T14:26:23;7.05;;;4.68;;
44304;SDS011;30019;50.576;8.568;2023-03-03T14:28:49;7.50;;;4.57;;
44304;SDS011;30019;50.576;8.568;2023-03-03T14:31:21;7.10;;;5.00;;
44304;SDS011;30019;50.576;8.568;2023-03-03T14:33:57;8.75;;;5.10;;
44304;SDS011;30019;50.576;8.568;2023-03-03T14:36:35;6.25;;;4.68;;
44304;SDS011;30019;50.576;8.568;2023-03-03T14:39:23;6.32;;;4.37;;
44304;SDS011;30019;50.576;8.568;2023-03-03T14:41:49;5.53;;;4.25;;
44304;SDS011;30019;50.576;8.568;2023-03-03T14:44:26;6.78;;;4.80;;
44304;SDS011;30019;50.576;8.568;2023-03-03T14:47:10;6.20;;;4.50;;
44304;SDS011;30019;50.576;8.568;2023-03-03T14:49:45;5.68;;;4.87;;
44304;SDS011;30019;50.576;8.568;2023-03-03T14:54:41;6.27;;;5.00;;
44304;SDS011;30019;50.576;8.568;2023-03-03T14:57:14;6.12;;;4.68;;
44304;SDS011;30019;50.576;8.568;2023-03-03T14:59:54;5.03;;;4.32;;
44304;SDS011;30019;50.576;8.568;2023-03-03T15:02:27;5.75;;;4.62;;
44304;SDS011;30019;50.576;8.568;2023-03-03T15:05:14;6.45;;;4.28;;
44304;SDS011;30019;50.576;8.568;2023-03-03T15:07:40;5.82;;;4.37;;
44304;SDS011;30019;50.576;8.568;2023-03-03T15:10:07;6.43;;;5.35;;
44304;SDS011;30019;50.576;8.568;2023-03-03T15:15:09;6.45;;;4.18;;
44304;SDS011;30019;50.576;8.568;2023-03-03T15:17:52;6.47;;;4.28;;
44304;SDS011;30019;50.576;8.568;2023-03-03T15:26:27;8.90;;;5.57;;
44304;SDS011;30019;50.576;8.568;2023-03-03T15:34:29;9.82;;;4.65;;
44304;SDS011;30019;50.576;8.568;2023-03-03T15:58:51;15.02;;;7.15;;
44304;SDS011;30019;50.576;8.568;2023-03-03T16:04:39;13.05;;;5.00;;
44304;SDS011;30019;50.576;8.568;2023-03-03T16:07:21;5.68;;;3.83;;
44304;SDS011;30019;50.576;8.568;2023-03-03T16:10:33;7.10;;;4.55;;
44304;SDS011;30019;50.576;8.568;2023-03-03T16:13:01;5.95;;;4.12;;
44304;SDS011;30019;50.576;8.568;2023-03-03T16:18:22;7.57;;;4.45;;
44304;SDS011;30019;50.576;8.568;2023-03-03T16:23:46;7.87;;;4.82;;
44304;SDS011;30019;50.576;8.568;2023-03-03T16:29:35;10.40;;;5.45;;
44304;SDS011;30019;50.576;8.568;2023-03-03T16:32:27;10.32;;;4.07;;
44304;SDS011;30019;50.576;8.568;2023-03-03T16:34:56;8.18;;;5.32;;
44304;SDS011;30019;50.576;8.568;2023-03-03T16:37:33;9.52;;;5.40;;
44304;SDS011;30019;50.576;8.568;2023-03-03T16:42:37;10.35;;;5.87;;
44304;SDS011;30019;50.576;8.568;2023-03-03T16:51:22;12.52;;;7.50;;
44304;SDS011;30019;50.576;8.568;2023-03-03T16:53:56;10.00;;;6.28;;
44304;SDS011;30019;50.576;8.568;2023-03-03T16:59:19;9.85;;;5.90;;
44304;SDS011;30019;50.576;8.568;2023-03-03T17:02:25;9.82;;;5.22;;
44304;SDS011;30019;50.576;8.568;2023-03-03T17:05:19;13.75;;;6.10;;
44304;SDS011;30019;50.576;8.568;2023-03-03T17:07:56;10.70;;;6.37;;
44304;SDS011;30019;50.576;8.568;2023-03-03T17:16:21;8.82;;;5.50;;
44304;SDS011;30019;50.576;8.568;2023-03-03T17:30:28;14.95;;;7.97;;
44304;SDS011;30019;50.576;8.568;2023-03-03T17:36:12;22.67;;;11.55;;
44304;SDS011;30019;50.576;8.568;2023-03-03T17:41:48;29.75;;;13.07;;
44304;SDS011;30019;50.576;8.568;2023-03-03T17:44:24;27.50;;;11.70;;
44304;SDS011;30019;50.576;8.568;2023-03-03T17:47:04;26.42;;;11.38;;
44304;SDS011;30019;50.576;8.568;2023-03-03T17:52:20;28.87;;;13.93;;
44304;SDS011;30019;50.576;8.568;2023-03-03T17:57:40;25.88;;;11.32;;
44304;SDS011;30019;50.576;8.568;2023-03-03T18:00:48;19.90;;;10.13;;
44304;SDS011;30019;50.576;8.568;2023-03-03T18:12:03;56.88;;;26.67;;
44304;SDS011;30019;50.576;8.568;2023-03-03T18:15:01;48.22;;;21.80;;
44304;SDS011;30019;50.576;8.568;2023-03-03T18:25:13;18.77;;;7.62;;
44304;SDS011;30019;50.576;8.568;2023-03-03T18:27:44;15.82;;;8.88;;
44304;SDS011;30019;50.576;8.568;2023-03-03T18:37:47;29.35;;;7.40;;
44304;SDS011;30019;50.576;8.568;2023-03-03T18:40:29;14.18;;;8.25;;
44304;SDS011;30019;50.576;8.568;2023-03-03T18:42:57;23.27;;;11.32;;
44304;SDS011;30019;50.576;8.568;2023-03-03T18:50:48;23.65;;;10.05;;
44304;SDS011;30019;50.576;8.568;2023-03-03T18:53:26;21.65;;;8.80;;
44304;SDS011;30019;50.576;8.568;2023-03-03T18:55:57;23.55;;;9.23;;
44304;SDS011;30019;50.576;8.568;2023-03-03T19:09:08;12.70;;;7.15;;
44304;SDS011;30019;50.576;8.568;2023-03-03T19:11:38;16.12;;;7.57;;
44304;SDS011;30019;50.576;8.568;2023-03-03T19:16:58;13.55;;;7.20;;
44304;SDS011;30019;50.576;8.568;2023-03-03T19:22:41;15.55;;;7.78;;
44304;SDS011;30019;50.576;8.568;2023-03-03T19:25:13;14.40;;;6.35;;
44304;SDS011;30019;50.576;8.568;2023-03-03T19:33:06;15.60;;;8.23;;
44304;SDS011;30019;50.576;8.568;2023-03-03T19:38:31;19.52;;;9.32;;
44304;SDS011;30019;50.576;8.568;2023-03-03T19:50:12;19.40;;;9.80;;
44304;SDS011;30019;50.576;8.568;2023-03-03T19:52:45;23.77;;;11.68;;
44304;SDS011;30019;50.576;8.568;2023-03-03T19:55:37;21.58;;;9.80;;
44304;SDS011;30019;50.576;8.568;2023-03-03T19:58:39;21.30;;;10.15;;
44304;SDS011;30019;50.576;8.568;2023-03-03T20:07:11;36.40;;;15.45;;
44304;SDS011;30019;50.576;8.568;2023-03-03T20:10:12;36.25;;;15.88;;
44304;SDS011;30019;50.576;8.568;2023-03-03T20:12:49;34.88;;;13.77;;
44304;SDS011;30019;50.576;8.568;2023-03-03T20:21:48;29.55;;;13.45;;
44304;SDS011;30019;50.576;8.568;2023-03-03T20:27:03;31.55;;;14.15;;
44304;SDS011;30019;50.576;8.568;2023-03-03T20:35:24;23.80;;;10.57;;
44304;SDS011;30019;50.576;8.568;2023-03-03T20:41:32;23.47;;;11.67;;
44304;SDS011;30019;50.576;8.568;2023-03-03T20:44:24;33.63;;;12.60;;
44304;SDS011;30019;50.576;8.568;2023-03-03T20:50:25;28.08;;;12.55;;
44304;SDS011;30019;50.576;8.568;2023-03-03T21:01:40;20.10;;;9.30;;
44304;SDS011;30019;50.576;8.568;2023-03-03T21:04:26;18.73;;;9.68;;
44304;SDS011;30019;50.576;8.568;2023-03-03T21:06:54;21.25;;;10.32;;
44304;SDS011;30019;50.576;8.568;2023-03-03T21:09:25;20.77;;;10.38;;
44304;SDS011;30019;50.576;8.568;2023-03-03T21:11:54;23.70;;;11.38;;